Austin, TX

07:37 CDT le 31 Mars 2015 (GMT -0500)
Thermal Lab Facility, CSD | | Change Station
CLOSE
Current Station
Stations météorologiques personnelles
Location: Austin, TX
Altitude: 600 ft
Stations météo à proximité

Alt. 600 ft 30.29 °N, 97.74 °W | Updated 17 seconds ago

Couvert
Couvert
67.4 ° F
Paraît 67.4 ° F
N
0.0
Vent Variable Vent de ESE
Gusts 1.0 mph

Aujourd'hui
Haut(e) -- | Bas -- ° F
--% Risque de précip.
Hier
Haut(e) -- | Bas -- ° F
Precip. -- pouce
7:21 AM 7:49 PM
Lune gibbeuse croissante, 86% visible
Pression 30.06 pouce
Visibilité 10.0 Miles terrestres
Nuages Nuages épars 1200 ft
Couvert 2100 ft
Point de rosée 63 ° F
Humidité 86%
Précipitations 0.00 pouce
Profondeur de la couche neigeuse Non disponible.
UV 0 sur 12
Pollen 8.80 sur 12
Qualité de l'air Non disponible.
Flu Activity Non disponible.
SPECI KATT 311231Z AUTO VRB06KT 10SM SCT012 OVC021 19/17 A3006 RMK AO2 T01890167 $

More Conditions Fewer Conditions

Pression 30.06 pouce
Visibilité 10.0 Miles terrestres
Nuages Nuages épars 1200 ft
Couvert 2100 ft
Point de rosée 63 ° F
Humidité 86%
Précipitations 0.00 pouce
Profondeur de la couche neigeuse Non disponible.
UV 0 sur 12
Pollen 8.80 sur 12
Qualité de l'air Non disponible.
Flu Activity Non disponible.
SPECI KATT 311231Z AUTO VRB06KT 10SM SCT012 OVC021 19/17 A3006 RMK AO2 T01890167 $

More Conditions Fewer Conditions

10-Day Weather Forecast

Almanac

Astronomie

Mar. 31, 2015 Lever Coucher
Temps réel
Crépuscule civil
Crépuscule nautique
Crépuscule astronomique
Lune
Durée de lumière visible
Longueur du jour
Tomorrow will be .
, % of the Moon is Illuminated

Extrêmes aujourd'hui

State Highs State Lows

Community

WunderPhotos

Upload Photos

1,809,754 Photos téléchargées !

WunderBlogs® & News

Nearby

Qualité de l'air

  Qualité de l'air Indice de la qualité de l'air Polluant
Not available.

Épaisseur de neige

Station Depth Altitude

Activité sismique

Ville Distance Mag. Time & Date
Minimum magnitude displayed is 2.5.

Températures des eaux côtières

Lieu Température

Stations

Stations météo à proximité

Emplacement de la station Température Refroidissement éolien Point de rosée Humidité Vent Precip. Alt. Mise à jour Type